TED STEVENS ANCHORAGE INTL

PANC (ANC)
Anchorage, Alaska
Towered

Vatsim Metar:
PANC 291753Z 26004KT 6SM -DZ BR BKN006 OVC022 12/09 A3023 RMK AO2 SLP236 P0000 60001 T01220089 10122 20111 51005

No ATC Online

Traffic

Inbound:
Ident
Type
Name
ETA
Phase
N951WM
AS50
Simon
18:17 Z
Descent
CXD079
B77W
Nuri Burak Erkal LTFM
20:33 Z
Cruse
AAR286
B744
1198798
21:19 Z
Cruse
EOK522
A320
Dahan Kim RKTP
22:15 Z
Cruse
CPA087
B748
1407677 VHHH
Unknown
CAL5322
B744
Chi-cheng Liu RCTP
00:46 Z
Descent

Outbound:
Ident
Type
Name
Destination
Phase
KAL284
B77L
TaeSung Lim CYYZ
RKSI
Boarding